Time;durP1;ratioP1;P1;durP2;ratioP2;P2;SDS_P1;SDS_P2;PMS_P1;PMS_P2;Temp;Humidity;BMP_temperature;BMP_pressure;BME280_temperature;BME280_humidity;BME280_pressure;Samples;Min_cycle;Max_cycle;Signal;HPM_P1;HPM_P2
2023/06/15 00:00:44;;;;;;;6.33;3.80;;;13.10;99.90;;;;;;5013317;28;20431;-54
2023/06/15 00:03:10;;;;;;;9.33;4.00;;;13.10;99.90;;;;;;5013242;28;20462;-53
2023/06/15 00:05:36;;;;;;;7.17;3.97;;;13.10;99.90;;;;;;5013345;28;20498;-53
2023/06/15 00:08:02;;;;;;;8.87;4.20;;;13.00;99.90;;;;;;5013113;28;20614;-53
2023/06/15 00:10:28;;;;;;;7.50;3.70;;;12.90;99.90;;;;;;5012895;28;20229;-53
2023/06/15 00:12:53;;;;;;;3.93;3.63;;;12.90;99.90;;;;;;5012692;28;20331;-52
2023/06/15 00:15:19;;;;;;;10.80;4.00;;;12.90;99.90;;;;;;5012880;28;20196;-53
2023/06/15 00:17:45;;;;;;;6.80;4.03;;;12.90;99.90;;;;;;5012763;28;20193;-53
2023/06/15 00:20:13;;;;;;;9.93;3.90;;;12.90;99.90;;;;;;5013039;28;20407;-51
2023/06/15 00:22:41;;;;;;;5.47;4.07;;;12.80;99.90;;;;;;5012886;28;20680;-53
2023/06/15 00:25:08;;;;;;;6.03;3.97;;;12.80;99.90;;;;;;5013182;28;20959;-54
2023/06/15 00:27:35;;;;;;;5.60;4.10;;;12.80;99.90;;;;;;5012912;28;20425;-53
2023/06/15 00:30:01;;;;;;;5.20;4.10;;;12.80;99.90;;;;;;5012210;28;20427;-53
2023/06/15 00:32:26;;;;;;;4.40;3.93;;;12.80;99.90;;;;;;5012849;28;20854;-53
2023/06/15 00:34:52;;;;;;;10.37;4.10;;;12.80;99.90;;;;;;5012698;28;20499;-52
2023/06/15 00:37:18;;;;;;;8.23;4.13;;;12.80;99.90;;;;;;5012781;28;20180;-53
2023/06/15 00:39:43;;;;;;;6.63;3.97;;;12.80;99.90;;;;;;5012470;28;20180;-53
2023/06/15 00:42:09;;;;;;;4.57;3.83;;;12.80;99.90;;;;;;5012992;28;20184;-53
2023/06/15 00:44:35;;;;;;;5.60;4.13;;;12.80;99.90;;;;;;5012727;28;20195;-52
2023/06/15 00:47:01;;;;;;;7.03;3.70;;;12.80;1.00;;;;;;5012341;28;20416;-52
2023/06/15 00:49:27;;;;;;;7.63;3.77;;;12.90;1.00;;;;;;5012646;28;20207;-53
2023/06/15 00:51:53;;;;;;;4.33;3.93;;;12.90;1.00;;;;;;5027407;28;20184;-53
2023/06/15 00:54:23;;;;;;;4.27;3.30;;;13.00;1.00;;;;;;5012433;28;20411;-53
2023/06/15 00:56:50;;;;;;;4.83;3.70;;;13.00;1.00;;;;;;5012668;28;20423;-51
2023/06/15 00:59:16;;;;;;;7.80;3.80;;;13.00;1.00;;;;;;5012637;28;20419;-53
2023/06/15 01:01:42;;;;;;;4.00;3.60;;;13.00;1.00;;;;;;5012528;28;20416;-53
2023/06/15 01:04:08;;;;;;;6.10;4.00;;;13.00;1.00;;;;;;5012578;28;20813;-53
2023/06/15 01:06:41;;;;;;;8.27;3.70;;;12.90;1.00;;;;;;5012668;28;20192;-53
2023/06/15 01:09:11;;;;;;;8.27;3.83;;;12.90;1.00;;;;;;5012760;28;20416;-53
2023/06/15 01:11:38;;;;;;;4.63;3.77;;;12.80;1.00;;;;;;5012601;28;20427;-53
2023/06/15 01:14:05;;;;;;;4.90;4.13;;;12.80;1.00;;;;;;5012090;28;20939;-52
2023/06/15 01:16:38;;;;;;;8.23;4.10;;;12.70;1.00;;;;;;5012243;28;20431;-52
2023/06/15 01:19:09;;;;;;;5.37;3.83;;;12.60;1.00;;;;;;5012473;28;20408;-52
2023/06/15 01:21:36;;;;;;;6.43;3.80;;;12.60;1.00;;;;;;5012403;28;20411;-53
2023/06/15 01:24:08;;;;;;;11.50;4.10;;;12.50;1.00;;;;;;5012274;28;20498;-52
2023/06/15 01:26:37;;;;;;;7.50;3.90;;;12.50;1.00;;;;;;5012284;28;20950;-53
2023/06/15 01:29:03;;;;;;;9.93;3.97;;;12.40;1.00;;;;;;5011990;28;20974;-52
2023/06/15 01:31:30;;;;;;;4.20;3.70;;;12.40;1.00;;;;;;5012296;28;20412;-53
2023/06/15 01:33:55;;;;;;;6.07;4.23;;;12.30;1.00;;;;;;5012198;28;20426;-52
2023/06/15 01:36:21;;;;;;;5.60;4.20;;;12.30;1.00;;;;;;5012282;28;20415;-53
2023/06/15 01:38:52;;;;;;;7.27;4.10;;;12.30;1.00;;;;;;5011957;28;20191;-53
2023/06/15 01:41:21;;;;;;;4.67;4.07;;;12.20;1.00;;;;;;5012240;28;20161;-55
2023/06/15 01:43:47;;;;;;;6.83;3.80;;;12.10;1.00;;;;;;5015728;28;20862;-52
2023/06/15 01:46:14;;;;;;;4.90;3.90;;;12.10;1.00;;;;;;5015839;28;20502;-52
2023/06/15 01:48:40;;;;;;;5.93;3.70;;;12.10;1.00;;;;;;5016123;28;20777;-53
2023/06/15 01:51:06;;;;;;;10.67;4.17;;;12.00;1.00;;;;;;5015787;28;20439;-52
2023/06/15 01:53:32;;;;;;;8.30;4.47;;;12.00;1.00;;;;;;5015259;28;20522;-53
2023/06/15 01:55:59;;;;;;;5.53;3.90;;;11.90;1.00;;;;;;5015752;28;20184;-53
2023/06/15 01:58:24;;;;;;;5.73;3.97;;;11.90;1.00;;;;;;5015249;28;20272;-52
2023/06/15 02:00:50;;;;;;;6.07;4.27;;;11.80;1.00;;;;;;5015765;28;20449;-53
2023/06/15 02:03:16;;;;;;;7.50;4.47;;;11.80;1.00;;;;;;5015662;28;20274;-52
2023/06/15 02:05:41;;;;;;;5.53;4.30;;;11.80;1.00;;;;;;5015587;28;20184;-52
2023/06/15 02:08:08;;;;;;;7.00;5.20;;;11.80;1.00;;;;;;5015641;28;20180;-52
2023/06/15 02:10:33;;;;;;;6.20;4.13;;;11.70;1.00;;;;;;5015199;28;20270;-52
2023/06/15 02:13:00;;;;;;;4.63;4.10;;;11.70;1.00;;;;;;5015259;28;20492;-54
2023/06/15 02:15:26;;;;;;;4.20;3.80;;;11.70;1.00;;;;;;5015257;28;20189;-53
2023/06/15 02:17:58;;;;;;;5.80;4.10;;;11.60;1.00;;;;;;5014856;28;20422;-52
2023/06/15 02:20:25;;;;;;;9.23;4.37;;;11.60;1.00;;;;;;5015316;28;20423;-52
2023/06/15 02:22:52;;;;;;;6.90;4.20;;;11.60;1.00;;;;;;5015178;28;20466;-53
2023/06/15 02:25:19;;;;;;;5.57;3.90;;;11.50;1.00;;;;;;5015231;28;20422;-52
2023/06/15 02:27:45;;;;;;;4.97;4.33;;;11.50;1.00;;;;;;5014907;28;20993;-52
2023/06/15 02:30:11;;;;;;;7.00;4.10;;;11.40;1.00;;;;;;5015245;28;20419;-52
2023/06/15 02:32:39;;;;;;;11.70;4.20;;;11.40;1.00;;;;;;5015168;28;20188;-52
2023/06/15 02:35:07;;;;;;;5.30;4.03;;;11.30;1.00;;;;;;5014933;28;20778;-53
2023/06/15 02:37:33;;;;;;;7.10;4.70;;;11.30;1.00;;;;;;5014956;28;20485;-52
2023/06/15 02:39:58;;;;;;;10.10;4.30;;;11.20;1.00;;;;;;5014956;28;20828;-52
2023/06/15 02:42:24;;;;;;;7.50;4.83;;;11.20;1.00;;;;;;5015563;28;20235;-52
2023/06/15 02:44:50;;;;;;;8.33;4.63;;;11.20;1.00;;;;;;5014751;28;20207;-52
2023/06/15 02:47:15;;;;;;;6.43;4.60;;;11.20;1.00;;;;;;5014820;28;20172;-51
2023/06/15 02:49:41;;;;;;;6.50;4.43;;;11.20;1.00;;;;;;5014991;28;20187;-52
2023/06/15 02:52:07;;;;;;;4.53;4.13;;;11.20;1.00;;;;;;5014395;28;20574;-52
2023/06/15 02:54:34;;;;;;;7.80;4.77;;;11.10;1.00;;;;;;5014541;28;20200;-52
2023/06/15 02:56:59;;;;;;;6.53;4.73;;;11.10;1.00;;;;;;5014610;28;20415;-53
2023/06/15 02:59:25;;;;;;;8.57;4.70;;;11.10;1.00;;;;;;5014642;28;20770;-52
2023/06/15 03:01:52;;;;;;;5.07;4.57;;;11.10;1.00;;;;;;5014523;28;20188;-52
2023/06/15 03:04:21;;;;;;;6.83;4.40;;;11.10;1.00;;;;;;5014531;28;20216;-52
2023/06/15 03:06:51;;;;;;;5.07;4.33;;;11.10;1.00;;;;;;5014360;28;20411;-52
2023/06/15 03:09:17;;;;;;;5.90;4.07;;;11.00;1.00;;;;;;5014156;28;20423;-52
2023/06/15 03:11:44;;;;;;;17.90;4.60;;;11.10;1.00;;;;;;5014528;28;20938;-51
2023/06/15 03:14:12;;;;;;;5.23;4.73;;;11.10;1.00;;;;;;5014541;28;20518;-52
2023/06/15 03:16:46;;;;;;;5.23;4.70;;;11.10;1.00;;;;;;5014542;28;20787;-52
2023/06/15 03:19:14;;;;;;;8.73;5.03;;;11.00;1.00;;;;;;5014524;28;20462;-53
2023/06/15 03:21:41;;;;;;;5.63;4.03;;;11.00;1.00;;;;;;5014362;28;20424;-52
2023/06/15 03:24:08;;;;;;;5.60;4.67;;;11.00;1.00;;;;;;5014008;28;20483;-52
2023/06/15 03:26:35;;;;;;;10.30;4.60;;;11.00;1.00;;;;;;5014242;28;20435;-52
2023/06/15 03:29:02;;;;;;;5.10;4.37;;;11.00;1.00;;;;;;5013859;28;20514;-52
2023/06/15 03:31:33;;;;;;;7.10;4.90;;;11.00;1.00;;;;;;5013916;28;20473;-53
2023/06/15 03:34:02;;;;;;;5.40;4.80;;;10.90;1.00;;;;;;5013920;28;20416;-52
2023/06/15 03:36:31;;;;;;;7.30;4.73;;;11.00;1.00;;;;;;5013694;28;20450;-53
2023/06/15 03:38:57;;;;;;;5.40;4.50;;;11.00;1.00;;;;;;5013720;28;20540;-52
2023/06/15 03:41:24;;;;;;;9.07;4.50;;;11.00;1.00;;;;;;5013558;28;20421;-51
2023/06/15 03:43:49;;;;;;;6.70;4.60;;;11.00;1.00;;;;;;5013426;28;20473;-51
2023/06/15 03:46:15;;;;;;;8.07;5.17;;;11.00;1.00;;;;;;5013519;28;20415;-51
2023/06/15 03:48:41;;;;;;;7.10;4.30;;;11.00;1.00;;;;;;5013569;28;20180;-52
2023/06/15 03:51:06;;;;;;;8.60;5.27;;;11.00;1.00;;;;;;5013240;28;20191;-52
2023/06/15 03:53:32;;;;;;;6.40;4.83;;;11.00;1.00;;;;;;5013191;28;20247;-53
2023/06/15 03:55:57;;;;;;;5.40;4.33;;;11.00;1.00;;;;;;5013368;28;20679;-52
2023/06/15 03:58:24;;;;;;;4.47;4.07;;;11.10;1.00;;;;;;5013215;28;20183;-53
2023/06/15 04:00:50;;;;;;;7.40;4.40;;;11.10;1.00;;;;;;5013236;28;20263;-52
2023/06/15 04:03:16;;;;;;;5.60;4.10;;;11.10;1.00;;;;;;5013420;28;20551;-52
2023/06/15 04:05:42;;;;;;;5.30;4.60;;;11.10;1.00;;;;;;5013101;28;20925;-52
2023/06/15 04:08:08;;;;;;;7.07;4.37;;;11.10;1.00;;;;;;5013315;28;20180;-52
2023/06/15 04:10:34;;;;;;;9.83;4.63;;;11.20;1.00;;;;;;5012988;28;20198;-53
2023/06/15 04:13:00;;;;;;;6.87;5.00;;;11.20;1.00;;;;;;5013173;28;20180;-53
2023/06/15 04:15:26;;;;;;;7.97;5.10;;;11.20;1.00;;;;;;5013033;28;20450;-53
2023/06/15 04:17:51;;;;;;;9.73;5.17;;;11.30;1.00;;;;;;5013001;28;20283;-52
2023/06/15 04:20:17;;;;;;;6.73;4.83;;;11.40;1.00;;;;;;5013127;28;20207;-52
2023/06/15 04:22:42;;;;;;;6.27;4.53;;;11.50;1.00;;;;;;5013309;28;20656;-51
2023/06/15 04:25:08;;;;;;;6.00;4.83;;;11.50;1.00;;;;;;5012730;28;20267;-53
2023/06/15 04:27:35;;;;;;;6.73;5.00;;;11.60;1.00;;;;;;5013005;28;20187;-53
2023/06/15 04:30:02;;;;;;;6.70;4.80;;;11.70;1.00;;;;;;5012987;28;20480;-52
2023/06/15 04:32:29;;;;;;;7.03;4.87;;;11.80;1.00;;;;;;5012615;28;20961;-52
2023/06/15 04:35:03;;;;;;;6.50;4.20;;;11.90;1.00;;;;;;5012705;28;20423;-52
2023/06/15 04:37:29;;;;;;;6.20;5.10;;;12.00;1.00;;;;;;5012966;28;20407;-53
2023/06/15 04:39:59;;;;;;;6.17;4.50;;;12.20;1.00;;;;;;5012847;28;20832;-52
2023/06/15 04:42:26;;;;;;;6.40;4.43;;;12.40;1.00;;;;;;5012736;28;20553;-52
2023/06/15 04:44:52;;;;;;;6.53;4.07;;;12.60;1.00;;;;;;5012785;28;20415;-53
2023/06/15 04:47:18;;;;;;;5.57;4.30;;;12.80;1.00;;;;;;5012433;28;20437;-53
2023/06/15 04:49:44;;;;;;;10.77;4.30;;;13.00;1.00;;;;;;5012980;28;20185;-53
2023/06/15 04:52:10;;;;;;;8.57;4.63;;;13.20;1.00;;;;;;5012199;28;20386;-53
2023/06/15 04:54:36;;;;;;;7.20;4.20;;;13.40;1.00;;;;;;5012695;28;20246;-53
2023/06/15 04:57:01;;;;;;;8.07;4.40;;;13.70;1.00;;;;;;5012334;28;20423;-53
2023/06/15 04:59:27;;;;;;;4.63;4.17;;;13.90;1.00;;;;;;5012625;28;20418;-53
2023/06/15 05:01:53;;;;;;;6.13;4.57;;;14.20;1.00;;;;;;5012705;28;20192;-53
2023/06/15 05:04:21;;;;;;;8.47;4.60;;;14.40;1.00;;;;;;5012649;28;20652;-53
2023/06/15 05:06:46;;;;;;;6.23;5.07;;;14.70;1.00;;;;;;5012792;28;20436;-53
2023/06/15 05:09:12;;;;;;;6.03;4.50;;;14.90;1.00;;;;;;5012806;28;20764;-54
2023/06/15 05:11:38;;;;;;;6.13;4.40;;;15.20;1.00;;;;;;5012206;28;20187;-54
2023/06/15 05:14:04;;;;;;;7.53;4.73;;;15.40;1.00;;;;;;5012486;28;20190;-54
2023/06/15 05:16:30;;;;;;;13.87;4.33;;;15.60;1.00;;;;;;5012930;28;20463;-54
2023/06/15 05:18:55;;;;;;;8.60;4.27;;;15.70;1.00;;;;;;5016145;28;20239;-55
2023/06/15 05:21:21;;;;;;;8.00;3.97;;;15.90;1.00;;;;;;5016094;28;20186;-55
2023/06/15 05:23:47;;;;;;;12.20;4.57;;;16.00;1.00;;;;;;5016423;28;20578;-55
2023/06/15 05:26:13;;;;;;;8.87;4.23;;;16.10;1.00;;;;;;5016343;28;20620;-54
2023/06/15 05:28:38;;;;;;;9.53;4.67;;;16.30;1.00;;;;;;5016167;28;20182;-55
2023/06/15 05:31:08;;;;;;;8.00;4.37;;;16.50;1.00;;;;;;5015901;28;20202;-54
2023/06/15 05:33:34;;;;;;;4.70;3.90;;;16.70;1.00;;;;;;5016074;28;20189;-55
2023/06/15 05:35:59;;;;;;;9.97;4.30;;;17.00;1.00;;;;;;5015865;28;20417;-54
2023/06/15 05:38:26;;;;;;;5.57;3.93;;;17.20;1.00;;;;;;5016093;28;20421;-53
2023/06/15 05:40:51;;;;;;;13.03;4.90;;;17.40;1.00;;;;;;5015967;28;20190;-53
2023/06/15 05:43:17;;;;;;;6.13;3.93;;;17.60;1.00;;;;;;5015956;28;20478;-54
2023/06/15 05:45:43;;;;;;;8.13;4.20;;;17.80;1.00;;;;;;5016244;28;20281;-53
2023/06/15 05:48:08;;;;;;;6.60;4.57;;;17.90;99.90;;;;;;5015766;28;20190;-53
2023/06/15 05:50:35;;;;;;;16.80;4.33;;;18.10;99.90;;;;;;5015806;28;20278;-53
2023/06/15 05:53:01;;;;;;;6.70;4.20;;;18.30;99.90;;;;;;5015274;28;20253;-53
2023/06/15 05:55:27;;;;;;;7.80;3.80;;;18.50;99.90;;;;;;5015742;28;20492;-54
2023/06/15 05:57:52;;;;;;;9.33;4.20;;;18.60;99.90;;;;;;5014186;28;20189;-53
2023/06/15 06:00:18;;;;;;;6.87;3.97;;;18.80;99.90;;;;;;5014097;28;20180;-53
2023/06/15 06:02:44;;;;;;;8.10;4.40;;;18.90;99.90;;;;;;5014257;28;20237;-53
2023/06/15 06:05:10;;;;;;;7.53;4.30;;;19.00;99.90;;;;;;5014388;28;20504;-53
2023/06/15 06:07:35;;;;;;;6.57;4.07;;;19.20;99.90;;;;;;5013950;28;20639;-53
2023/06/15 06:10:01;;;;;;;10.87;4.70;;;19.30;99.90;;;;;;5014017;28;20191;-53
2023/06/15 06:12:26;;;;;;;11.03;4.37;;;19.40;99.90;;;;;;5014289;28;20215;-53
2023/06/15 06:14:52;;;;;;;10.90;4.10;;;19.60;99.90;;;;;;5014731;28;20195;-53
2023/06/15 06:17:18;;;;;;;8.03;4.40;;;19.80;99.90;;;;;;5014995;28;20182;-53
2023/06/15 06:19:43;;;;;;;11.80;4.00;;;20.00;99.90;;;;;;5014154;28;20222;-53
2023/06/15 06:22:09;;;;;;;7.60;4.47;;;20.30;99.90;;;;;;5015010;28;20179;-52
2023/06/15 06:24:34;;;;;;;11.37;3.77;;;20.30;99.90;;;;;;5015089;28;20188;-54
2023/06/15 06:27:00;;;;;;;10.90;3.73;;;20.00;99.90;;;;;;5014983;28;20194;-54
2023/06/15 06:29:26;;;;;;;7.03;4.00;;;19.80;99.90;;;;;;5014778;28;20183;-53
2023/06/15 06:31:51;;;;;;;5.37;3.90;;;19.80;99.90;;;;;;5014877;28;20413;-53
2023/06/15 06:34:17;;;;;;;5.80;4.17;;;20.20;99.90;;;;;;5015106;28;20245;-52
2023/06/15 06:36:43;;;;;;;5.60;3.67;;;20.50;99.90;;;;;;5015123;28;20191;-53
2023/06/15 06:39:09;;;;;;;6.87;4.30;;;20.90;99.90;;;;;;5015082;28;20195;-53
2023/06/15 06:41:34;;;;;;;3.83;3.43;;;21.20;99.90;;;;;;5014731;28;20484;-53
2023/06/15 06:44:00;;;;;;;5.70;3.80;;;21.20;99.90;;;;;;5014755;28;20320;-53
2023/06/15 06:46:26;;;;;;;5.47;3.50;;;21.30;99.90;;;;;;5014742;28;20293;-53
2023/06/15 06:48:51;;;;;;;12.53;4.63;;;21.60;99.90;;;;;;5014895;28;20238;-53
2023/06/15 06:51:17;;;;;;;10.20;3.87;;;21.90;99.90;;;;;;5015134;28;20622;-53
2023/06/15 06:53:43;;;;;;;11.20;3.63;;;22.20;99.90;;;;;;5015181;28;20247;-53
2023/06/15 06:56:08;;;;;;;9.40;3.70;;;22.40;99.90;;;;;;5014622;28;20637;-50
2023/06/15 06:58:34;;;;;;;8.40;3.63;;;22.60;99.90;;;;;;5014206;28;20188;-50
2023/06/15 07:00:59;;;;;;;11.83;3.80;;;22.50;99.90;;;;;;5014357;28;20193;-50
2023/06/15 07:03:25;;;;;;;5.80;3.63;;;22.60;99.90;;;;;;5013919;28;20245;-50
2023/06/15 07:05:51;;;;;;;6.70;4.07;;;23.00;99.90;;;;;;5014057;28;20193;-50
2023/06/15 07:08:16;;;;;;;5.57;3.30;;;23.20;99.90;;;;;;5014545;28;20709;-50
2023/06/15 07:10:42;;;;;;;4.13;3.73;;;23.40;99.90;;;;;;5013950;28;20177;-51
2023/06/15 07:13:07;;;;;;;8.87;3.73;;;23.70;99.90;;;;;;5014228;28;20198;-50
2023/06/15 07:15:33;;;;;;;7.50;3.60;;;23.60;99.90;;;;;;5013953;28;20243;-51
2023/06/15 07:17:59;;;;;;;9.43;4.00;;;23.50;99.90;;;;;;5014017;28;20189;-50
2023/06/15 07:20:24;;;;;;;8.23;3.90;;;23.20;99.90;;;;;;5013581;28;20249;-50
2023/06/15 07:22:50;;;;;;;7.10;3.53;;;22.90;99.90;;;;;;5013398;28;20223;-50
2023/06/15 07:25:16;;;;;;;6.43;3.70;;;22.80;99.90;;;;;;5014198;28;20187;-51
2023/06/15 07:27:41;;;;;;;17.73;4.37;;;22.80;99.90;;;;;;5013741;28;20182;-50
2023/06/15 07:30:08;;;;;;;8.10;3.27;;;23.20;99.90;;;;;;5013571;28;20186;-52
2023/06/15 07:32:33;;;;;;;10.87;3.80;;;23.80;99.90;;;;;;5013658;28;20198;-51
2023/06/15 07:34:59;;;;;;;5.67;3.40;;;24.40;99.90;;;;;;5013598;28;20833;-50
2023/06/15 07:37:24;;;;;;;7.60;3.17;;;24.70;99.90;;;;;;5013623;28;20267;-51
2023/06/15 07:39:50;;;;;;;7.80;3.60;;;24.90;99.90;;;;;;5012654;28;20274;-50
2023/06/15 07:42:15;;;;;;;6.00;3.40;;;25.20;99.90;;;;;;5013394;28;20182;-51
2023/06/15 07:44:41;;;;;;;6.53;3.50;;;25.30;99.90;;;;;;5013536;28;20190;-51
2023/06/15 07:47:08;;;;;;;13.13;3.83;;;25.50;99.90;;;;;;5013207;28;20274;-50
2023/06/15 07:49:33;;;;;;;9.00;3.80;;;25.80;99.90;;;;;;5013399;28;20199;-51
2023/06/15 07:51:59;;;;;;;14.40;4.10;;;26.00;99.90;;;;;;5012845;28;20422;-50
2023/06/15 07:54:25;;;;;;;12.10;3.90;;;26.30;99.90;;;;;;5013062;28;20179;-51
2023/06/15 07:56:50;;;;;;;8.17;4.17;;;26.40;99.90;;;;;;5013126;28;20182;-50
2023/06/15 07:59:16;;;;;;;7.83;3.30;;;26.50;99.90;;;;;;5013343;28;20549;-51
2023/06/15 08:01:41;;;;;;;6.17;3.63;;;26.40;99.90;;;;;;5012956;28;20190;-51
2023/06/15 08:04:08;;;;;;;4.73;3.43;;;26.30;99.90;;;;;;5012968;28;20223;-51
2023/06/15 08:06:33;;;;;;;4.80;3.67;;;26.10;99.90;;;;;;5013095;28;20202;-50
2023/06/15 08:08:59;;;;;;;12.27;3.63;;;25.40;99.90;;;;;;5013044;28;20415;-50
2023/06/15 08:11:26;;;;;;;8.20;4.50;;;24.80;99.90;;;;;;5012702;28;20183;-50
2023/06/15 08:13:51;;;;;;;16.63;3.20;;;24.40;99.90;;;;;;5012821;28;20230;-50
2023/06/15 08:16:17;;;;;;;7.67;3.53;;;24.00;99.90;;;;;;5012983;28;20451;-51
2023/06/15 08:18:42;;;;;;;4.87;3.53;;;23.80;99.90;;;;;;5012556;28;20262;-51
2023/06/15 08:21:08;;;;;;;8.03;3.80;;;23.80;99.90;;;;;;5012661;28;20189;-51
2023/06/15 08:23:34;;;;;;;10.23;3.60;;;24.00;99.90;;;;;;5012821;28;20227;-50
2023/06/15 08:25:59;;;;;;;7.53;3.50;;;24.10;99.90;;;;;;5012870;28;20194;-50
2023/06/15 08:28:25;;;;;;;4.30;3.23;;;24.20;99.90;;;;;;5012616;28;20182;-51
2023/06/15 08:30:50;;;;;;;5.87;3.40;;;24.60;99.90;;;;;;5012852;28;20191;-50
2023/06/15 08:33:18;;;;;;;5.77;3.60;;;24.70;99.90;;;;;;5012784;28;20182;-51
2023/06/15 08:35:44;;;;;;;4.97;3.40;;;25.00;99.90;;;;;;5012734;28;20266;-51
2023/06/15 08:38:09;;;;;;;3.77;3.10;;;25.20;99.90;;;;;;5012680;28;21088;-51
2023/06/15 08:40:35;;;;;;;9.17;3.70;;;25.10;99.90;;;;;;5012339;28;20182;-51
2023/06/15 08:43:03;;;;;;;3.50;3.13;;;24.90;99.90;;;;;;5012280;28;20211;-50
2023/06/15 08:45:38;;;;;;;4.50;3.30;;;24.80;99.90;;;;;;5012611;28;20643;-51
2023/06/15 08:48:05;;;;;;;6.43;3.30;;;24.60;99.90;;;;;;5012440;28;20456;-51
2023/06/15 08:50:32;;;;;;;4.17;3.27;;;24.30;99.90;;;;;;5012303;28;20432;-51
2023/06/15 08:52:58;;;;;;;5.67;3.40;;;24.60;99.90;;;;;;5012003;28;20978;-51
2023/06/15 08:55:24;;;;;;;5.53;3.47;;;24.90;99.90;;;;;;5012484;28;20429;-50
2023/06/15 08:57:50;;;;;;;3.60;3.30;;;25.20;99.90;;;;;;5013054;28;20187;-51
2023/06/15 09:00:16;;;;;;;7.17;3.37;;;25.30;99.90;;;;;;5012691;28;20584;-51
2023/06/15 09:02:46;;;;;;;5.80;3.27;;;25.30;99.90;;;;;;5012452;28;20205;-51
2023/06/15 09:05:12;;;;;;;5.10;3.30;;;25.20;99.90;;;;;;5012250;28;20436;-51
2023/06/15 09:07:38;;;;;;;3.50;2.60;;;24.90;99.90;;;;;;5012344;28;20420;-50
2023/06/15 09:10:10;;;;;;;5.50;3.60;;;24.70;99.90;;;;;;5012215;28;20794;-50
2023/06/15 09:13:01;;;;;;;5.37;3.30;;;24.60;99.90;;;;;;5012322;28;20582;-50
2023/06/15 09:15:30;;;;;;;5.30;3.07;;;24.40;99.90;;;;;;5011446;28;20833;-50
2023/06/15 09:17:58;;;;;;;5.20;3.43;;;24.10;99.90;;;;;;5012108;28;20925;-50
2023/06/15 09:20:26;;;;;;;7.33;3.80;;;23.80;99.90;;;;;;5012296;28;20454;-50
2023/06/15 09:22:56;;;;;;;5.00;3.13;;;23.50;99.90;;;;;;5012007;28;20495;-50
2023/06/15 09:25:22;;;;;;;8.10;3.97;;;23.40;99.90;;;;;;5012129;28;20408;-49
2023/06/15 09:27:58;;;;;;;4.80;3.40;;;23.10;99.90;;;;;;5012518;28;20444;-51
2023/06/15 09:30:32;;;;;;;7.07;3.20;;;22.80;99.90;;;;;;5011895;28;20885;-50
2023/06/15 09:32:59;;;;;;;8.10;3.80;;;22.50;99.90;;;;;;5012105;28;20524;-50
2023/06/15 09:35:25;;;;;;;4.93;2.83;;;22.30;99.90;;;;;;5011065;28;20417;-50
2023/06/15 09:37:54;;;;;;;5.20;3.40;;;22.30;99.90;;;;;;5011494;28;20956;-50
2023/06/15 09:40:20;;;;;;;10.23;3.57;;;22.10;99.90;;;;;;5012275;28;20186;-50
2023/06/15 09:42:50;;;;;;;5.73;3.50;;;22.00;99.90;;;;;;5011989;28;20786;-52
2023/06/15 09:45:16;;;;;;;5.80;3.27;;;22.00;99.90;;;;;;5011900;28;20218;-50
2023/06/15 09:47:42;;;;;;;4.00;3.70;;;22.10;99.90;;;;;;5010982;28;20452;-50
2023/06/15 09:50:10;;;;;;;6.53;3.60;;;22.40;99.90;;;;;;5011028;28;20600;-50
2023/06/15 09:52:49;;;;;;;8.73;3.87;;;22.90;99.90;;;;;;5011104;28;20283;-50
2023/06/15 09:55:16;;;;;;;6.77;3.53;;;23.90;99.90;;;;;;5011299;28;20416;-50
2023/06/15 09:57:41;;;;;;;6.43;3.50;;;25.30;99.90;;;;;;5011165;28;20436;-51
2023/06/15 10:00:09;;;;;;;10.63;4.10;;;26.40;99.90;;;;;;5011432;28;20426;-51
2023/06/15 10:02:37;;;;;;;5.70;2.87;;;27.10;99.90;;;;;;5012279;28;20226;-51
2023/06/15 10:05:07;;;;;;;6.60;3.50;;;27.50;99.90;;;;;;5014459;28;20426;-51
2023/06/15 10:07:35;;;;;;;4.50;2.97;;;27.70;99.90;;;;;;5015118;28;20980;-51
2023/06/15 10:10:01;;;;;;;5.37;3.83;;;27.50;99.90;;;;;;5015283;28;20468;-51
2023/06/15 10:12:29;;;;;;;6.60;3.70;;;27.10;99.90;;;;;;5015047;28;20415;-51
2023/06/15 10:15:03;;;;;;;5.73;3.43;;;26.60;99.90;;;;;;5015116;28;20492;-51
2023/06/15 10:17:32;;;;;;;7.00;3.30;;;26.20;99.90;;;;;;5015246;28;20415;-51
2023/06/15 10:20:07;;;;;;;3.90;2.80;;;25.80;99.90;;;;;;5015166;28;20407;-50
2023/06/15 10:22:35;;;;;;;5.53;3.13;;;25.80;99.90;;;;;;5015037;28;20504;-51
2023/06/15 10:25:02;;;;;;;6.00;3.57;;;26.00;99.90;;;;;;5014676;28;20442;-51
2023/06/15 10:27:27;;;;;;;10.50;3.50;;;26.10;99.90;;;;;;5014667;28;20422;-51
2023/06/15 10:30:12;;;;;;;10.60;3.40;;;26.20;99.90;;;;;;5014935;28;20506;-50
2023/06/15 10:32:54;;;;;;;9.83;3.50;;;26.10;99.90;;;;;;5014650;28;20180;-51
2023/06/15 10:35:58;;;;;;;5.60;3.30;;;25.60;99.90;;;;;;5015253;28;20419;-51
2023/06/15 10:38:33;;;;;;;3.77;3.37;;;25.40;99.90;;;;;;4996530;28;20510;-50
2023/06/15 10:40:59;;;;;;;7.37;3.33;;;25.80;99.90;;;;;;5014784;28;20418;-51
2023/06/15 10:43:27;;;;;;;7.53;3.40;;;26.60;99.90;;;;;;5014633;28;20553;-50
2023/06/15 10:45:53;;;;;;;4.77;4.23;;;27.40;99.90;;;;;;5014765;28;20518;-50
2023/06/15 10:48:27;;;;;;;3.60;3.30;;;27.80;99.90;;;;;;5015029;28;20407;-51
2023/06/15 10:51:05;;;;;;;6.27;3.83;;;28.00;99.90;;;;;;5014757;28;20509;-51
2023/06/15 10:53:41;;;;;;;6.90;3.87;;;27.80;99.90;;;;;;5014170;28;20482;-51
2023/06/15 10:56:16;;;;;;;5.40;3.30;;;27.40;99.90;;;;;;5014358;28;20459;-51
2023/06/15 10:58:56;;;;;;;10.93;3.50;;;26.90;99.90;;;;;;5014364;28;20427;-51
2023/06/15 11:01:26;;;;;;;7.17;3.73;;;27.10;99.90;;;;;;5014494;28;20438;-51
2023/06/15 11:03:54;;;;;;;5.97;3.10;;;27.40;99.90;;;;;;5014251;28;21038;-51
2023/06/15 11:06:34;;;;;;;4.10;3.37;;;27.90;99.90;;;;;;5014381;28;20502;-50
2023/06/15 11:09:11;;;;;;;3.60;3.30;;;28.10;99.90;;;;;;5014283;28;20404;-50
2023/06/15 11:11:38;;;;;;;6.10;3.60;;;28.10;99.90;;;;;;5013957;28;20965;-50
2023/06/15 11:14:04;;;;;;;4.80;3.50;;;28.10;99.90;;;;;;5013859;28;20481;-50
2023/06/15 11:16:35;;;;;;;3.57;3.27;;;28.60;99.90;;;;;;5014085;28;20434;-50
2023/06/15 11:19:13;;;;;;;6.90;4.10;;;28.80;99.90;;;;;;5013963;28;20410;-50
2023/06/15 11:22:04;;;;;;;4.77;3.53;;;28.60;99.90;;;;;;5013603;28;20990;-51
2023/06/15 11:24:37;;;;;;;6.70;3.77;;;27.70;99.90;;;;;;5013698;28;20458;-50
2023/06/15 11:27:10;;;;;;;7.50;3.70;;;27.10;99.90;;;;;;5013859;28;20411;-50
2023/06/15 11:29:40;;;;;;;6.30;3.90;;;26.70;99.90;;;;;;5013468;28;20419;-50
2023/06/15 11:32:07;;;;;;;7.90;4.03;;;26.60;99.90;;;;;;5013799;28;20742;-50
2023/06/15 11:34:36;;;;;;;9.20;4.00;;;26.60;99.90;;;;;;5013420;28;20419;-50
2023/06/15 11:37:03;;;;;;;5.43;3.70;;;26.30;99.90;;;;;;5013767;28;20539;-50
2023/06/15 11:39:30;;;;;;;5.37;4.00;;;26.10;99.90;;;;;;5013646;28;20457;-50
2023/06/15 11:41:56;;;;;;;7.60;4.23;;;25.90;99.90;;;;;;5013420;28;20451;-50
2023/06/15 11:44:23;;;;;;;8.47;4.53;;;25.70;99.90;;;;;;5013389;28;20481;-50
2023/06/15 11:47:12;;;;;;;7.60;4.97;;;25.20;99.90;;;;;;5013472;28;20495;-50
2023/06/15 11:49:37;;;;;;;8.37;4.33;;;25.00;99.90;;;;;;5013700;28;20414;-50
2023/06/15 11:52:04;;;;;;;4.93;4.27;;;24.80;99.90;;;;;;5013094;28;20774;-50
2023/06/15 11:54:30;;;;;;;10.40;4.43;;;24.50;99.90;;;;;;5013201;28;20514;-50
2023/06/15 11:56:57;;;;;;;6.60;4.10;;;24.40;99.90;;;;;;5013309;28;20485;-51
2023/06/15 11:59:24;;;;;;;7.47;4.60;;;24.30;99.90;;;;;;5013712;28;20418;-51
2023/06/15 12:01:50;;;;;;;5.67;4.23;;;24.20;99.90;;;;;;5013728;28;20423;-51
2023/06/15 12:04:16;;;;;;;10.50;4.33;;;24.20;99.90;;;;;;5013418;28;20481;-51
2023/06/15 12:06:48;;;;;;;5.20;3.60;;;24.30;99.90;;;;;;5013146;28;20251;-49
2023/06/15 12:09:14;;;;;;;6.87;4.40;;;24.50;99.90;;;;;;5013346;28;20191;-49
2023/06/15 12:11:40;;;;;;;5.00;4.40;;;25.00;99.90;;;;;;5013097;28;20419;-50
2023/06/15 12:14:09;;;;;;;7.00;3.90;;;25.90;99.90;;;;;;5013036;28;20754;-50
2023/06/15 12:16:36;;;;;;;9.77;4.37;;;27.00;99.90;;;;;;5013141;28;20196;-50
2023/06/15 12:19:03;;;;;;;9.20;3.83;;;27.90;99.90;;;;;;5012728;28;20426;-50
2023/06/15 12:21:35;;;;;;;7.10;4.40;;;28.00;99.90;;;;;;5012580;28;20498;-50
2023/06/15 12:24:01;;;;;;;7.70;4.20;;;27.30;99.90;;;;;;5012446;28;20459;-49
2023/06/15 12:26:33;;;;;;;8.00;3.80;;;26.70;99.90;;;;;;5012496;28;20416;-49
2023/06/15 12:29:00;;;;;;;9.00;4.67;;;26.40;99.90;;;;;;5012827;28;20267;-50
2023/06/15 12:31:35;;;;;;;10.80;4.60;;;26.90;99.90;;;;;;5012745;28;20510;-49
2023/06/15 12:34:08;;;;;;;5.30;4.10;;;27.70;99.90;;;;;;5012663;28;20821;-50
2023/06/15 12:36:36;;;;;;;6.10;3.80;;;28.30;99.90;;;;;;5012728;28;20751;-50
2023/06/15 12:39:07;;;;;;;5.10;3.93;;;28.90;99.90;;;;;;5012504;28;20438;-50
2023/06/15 12:41:36;;;;;;;8.07;4.13;;;29.60;99.90;;;;;;5012372;28;20465;-50
2023/06/15 12:44:02;;;;;;;6.03;4.30;;;30.30;99.90;;;;;;5012189;28;20486;-49
2023/06/15 12:46:28;;;;;;;4.87;4.47;;;30.50;99.90;;;;;;5012359;28;20416;-49
2023/06/15 12:48:54;;;;;;;6.83;4.37;;;30.30;99.90;;;;;;5012796;28;20188;-50
2023/06/15 12:51:19;;;;;;;8.17;3.80;;;30.20;99.90;;;;;;5012647;28;20415;-51